Time;durP1;ratioP1;P1;durP2;ratioP2;P2;SDS_P1;SDS_P2;PMS_P1;PMS_P2;Temp;Humidity;BMP_temperature;BMP_pressure;BME280_temperature;BME280_humidity;BME280_pressure;Samples;Min_cycle;Max_cycle;Signal;HPM_P1;HPM_P2
2023/05/16 00:00:57;;;;;;;4.53;3.47;;;13.30;99.90;;;;;;4974295;28;20223;-63
2023/05/16 00:03:25;;;;;;;5.60;3.53;;;13.20;99.90;;;;;;4981026;28;20307;-64
2023/05/16 00:05:55;;;;;;;3.58;2.58;;;13.20;99.90;;;;;;4980334;28;20248;-63
2023/05/16 00:08:23;;;;;;;5.63;4.20;;;13.10;99.90;;;;;;4980556;28;20213;-62
2023/05/16 00:10:50;;;;;;;6.13;4.55;;;13.10;99.90;;;;;;4980745;28;20218;-63
2023/05/16 00:13:21;;;;;;;6.55;3.60;;;13.10;99.90;;;;;;4987502;28;20290;-63
2023/05/16 00:15:50;;;;;;;5.57;3.83;;;13.10;99.90;;;;;;4980654;28;20663;-62
2023/05/16 00:18:18;;;;;;;5.30;4.57;;;13.10;99.90;;;;;;4979299;28;20207;-63
2023/05/16 00:20:47;;;;;;;7.28;5.22;;;13.10;99.90;;;;;;4980157;28;20696;-63
2023/05/16 00:23:16;;;;;;;7.40;4.07;;;13.10;99.90;;;;;;4986387;28;20682;-63
2023/05/16 00:25:45;;;;;;;5.00;3.88;;;13.10;99.90;;;;;;4971969;28;20284;-64
2023/05/16 00:28:14;;;;;;;5.10;3.65;;;13.10;99.90;;;;;;4979687;28;20290;-62
2023/05/16 00:30:42;;;;;;;8.70;5.47;;;13.00;99.90;;;;;;4975723;28;20253;-63
2023/05/16 00:33:10;;;;;;;4.32;3.30;;;13.00;99.90;;;;;;4979843;28;20765;-63
2023/05/16 00:35:38;;;;;;;4.82;3.70;;;13.10;99.90;;;;;;4972036;28;20301;-63
2023/05/16 00:38:06;;;;;;;5.40;4.20;;;13.00;99.90;;;;;;4974510;28;20304;-63
2023/05/16 00:40:35;;;;;;;3.47;3.17;;;13.00;99.90;;;;;;4991284;28;20684;-63
2023/05/16 00:43:03;;;;;;;3.67;2.85;;;13.00;99.90;;;;;;4980597;28;20214;-63
2023/05/16 00:45:31;;;;;;;5.85;3.70;;;13.00;99.90;;;;;;4979111;28;20237;-62
2023/05/16 00:47:59;;;;;;;5.90;3.72;;;13.00;99.90;;;;;;4979628;28;20317;-63
2023/05/16 00:50:27;;;;;;;3.20;2.85;;;13.10;99.90;;;;;;5084267;23;20743;-68
2023/05/16 00:52:55;;;;;;;4.82;3.22;;;13.10;99.90;;;;;;4978881;28;20212;-71
2023/05/16 00:55:23;;;;;;;4.45;2.50;;;13.10;99.90;;;;;;4971876;28;20229;-71
2023/05/16 00:57:53;;;;;;;6.72;3.95;;;13.10;99.90;;;;;;4980655;28;20242;-69
2023/05/16 01:00:21;;;;;;;3.28;2.95;;;13.20;99.90;;;;;;4978488;28;20709;-72
2023/05/16 01:02:52;;;;;;;3.40;2.72;;;13.20;99.90;;;;;;4974030;28;20717;-70
2023/05/16 01:05:20;;;;;;;4.05;3.05;;;13.20;99.90;;;;;;4983936;28;20225;-73
2023/05/16 01:07:48;;;;;;;4.78;4.38;;;13.20;99.90;;;;;;4987192;28;20697;-73
2023/05/16 01:10:16;;;;;;;3.50;2.80;;;13.20;99.90;;;;;;4988623;28;20904;-73
2023/05/16 01:12:56;;;;;;;3.13;2.42;;;13.20;99.90;;;;;;4987219;28;20288;-72
2023/05/16 01:15:30;;;;;;;3.38;3.08;;;13.20;99.90;;;;;;4977567;28;20237;-72
2023/05/16 01:18:07;;;;;;;3.10;2.80;;;13.30;99.90;;;;;;4985246;28;20237;-72
2023/05/16 01:20:41;;;;;;;3.53;3.10;;;13.30;99.90;;;;;;4984099;28;20276;-72
2023/05/16 01:23:27;;;;;;;3.40;2.60;;;13.30;99.90;;;;;;4976736;28;20228;-71
2023/05/16 01:25:58;;;;;;;4.70;3.95;;;13.20;99.90;;;;;;4975378;28;20317;-71
2023/05/16 01:28:28;;;;;;;3.05;2.85;;;13.20;99.90;;;;;;4983858;28;20645;-72
2023/05/16 01:30:56;;;;;;;5.85;3.83;;;13.20;99.90;;;;;;4984655;28;20222;-71
2023/05/16 01:33:23;;;;;;;3.95;2.72;;;13.10;99.90;;;;;;4985798;28;20268;-72
2023/05/16 01:36:03;;;;;;;2.20;2.00;;;13.10;99.90;;;;;;4983161;28;20634;-70
2023/05/16 01:38:40;;;;;;;3.55;2.47;;;13.20;99.90;;;;;;4983629;28;20253;-70
2023/05/16 01:41:15;;;;;;;2.92;2.50;;;13.30;99.90;;;;;;4983256;28;20240;-71
2023/05/16 01:43:49;;;;;;;3.05;2.80;;;13.20;99.90;;;;;;4976006;28;20237;-71
2023/05/16 01:46:22;;;;;;;4.18;3.05;;;13.30;99.90;;;;;;4987095;28;20314;-70
2023/05/16 01:48:53;;;;;;;2.22;2.05;;;13.20;99.90;;;;;;4986397;28;20644;-69
2023/05/16 01:51:24;;;;;;;3.70;3.20;;;13.20;99.90;;;;;;4982994;28;20324;-69
2023/05/16 01:53:54;;;;;;;2.53;2.13;;;13.20;99.90;;;;;;4975853;28;20203;-71
2023/05/16 01:56:23;;;;;;;3.20;2.90;;;13.00;99.90;;;;;;4975065;28;20203;-71
2023/05/16 01:58:55;;;;;;;2.33;2.10;;;13.00;99.90;;;;;;4983606;28;20304;-69
2023/05/16 02:01:23;;;;;;;2.85;2.58;;;13.00;99.90;;;;;;4986619;28;20229;-73
2023/05/16 02:03:51;;;;;;;5.55;3.70;;;13.10;99.90;;;;;;4986903;28;20700;-71
2023/05/16 02:06:19;;;;;;;1.92;1.42;;;13.00;99.90;;;;;;4987206;28;20285;-73
2023/05/16 02:08:47;;;;;;;2.97;2.70;;;12.90;99.90;;;;;;4986361;28;20206;-71
2023/05/16 02:11:15;;;;;;;2.97;2.65;;;12.80;99.90;;;;;;4980284;28;20725;-73
2023/05/16 02:13:43;;;;;;;3.03;2.72;;;12.80;99.90;;;;;;4983255;28;20273;-70
2023/05/16 02:16:12;;;;;;;2.60;2.03;;;12.80;99.90;;;;;;4975044;28;20206;-70
2023/05/16 02:18:41;;;;;;;2.95;2.65;;;12.70;99.90;;;;;;4981909;28;20214;-71
2023/05/16 02:21:09;;;;;;;2.83;2.63;;;12.70;99.90;;;;;;4982140;28;20301;-70
2023/05/16 02:23:37;;;;;;;2.17;1.90;;;12.70;99.90;;;;;;4975415;28;20596;-70
2023/05/16 02:26:05;;;;;;;3.15;2.50;;;12.70;99.90;;;;;;4974456;28;20210;-70
2023/05/16 02:28:33;;;;;;;3.20;2.53;;;12.70;99.90;;;;;;4980649;28;20233;-72
2023/05/16 02:31:02;;;;;;;2.92;2.22;;;12.60;99.90;;;;;;4975626;28;20320;-72
2023/05/16 02:33:31;;;;;;;2.47;2.10;;;12.60;99.90;;;;;;4982689;28;20857;-71
2023/05/16 02:35:59;;;;;;;3.95;2.90;;;12.50;99.90;;;;;;4984295;28;20214;-72
2023/05/16 02:38:27;;;;;;;4.00;2.95;;;12.20;99.90;;;;;;4985874;28;20214;-70
2023/05/16 02:40:54;;;;;;;2.58;2.35;;;12.20;99.90;;;;;;4985065;28;20314;-72
2023/05/16 02:43:22;;;;;;;2.67;2.30;;;12.20;99.90;;;;;;4985559;28;20260;-72
2023/05/16 02:45:51;;;;;;;5.20;2.88;;;12.20;99.90;;;;;;4982405;28;20218;-71
2023/05/16 02:48:19;;;;;;;3.85;3.33;;;12.20;99.90;;;;;;4985503;28;20202;-70
2023/05/16 02:50:49;;;;;;;3.60;2.50;;;12.20;99.90;;;;;;4985110;28;20728;-70
2023/05/16 02:53:17;;;;;;;4.32;3.58;;;12.20;99.90;;;;;;4974950;28;20305;-72
2023/05/16 02:55:45;;;;;;;3.42;2.60;;;12.20;99.90;;;;;;4974095;28;20234;-72
2023/05/16 02:58:13;;;;;;;4.78;2.85;;;12.20;99.90;;;;;;4977851;28;20669;-72
2023/05/16 03:00:41;;;;;;;2.75;2.55;;;12.30;99.90;;;;;;4979152;28;20266;-72
2023/05/16 03:03:09;;;;;;;2.92;2.63;;;12.40;99.90;;;;;;4981715;28;20310;-71
2023/05/16 03:05:37;;;;;;;6.72;3.72;;;12.40;99.90;;;;;;4982483;28;20202;-73
2023/05/16 03:08:06;;;;;;;2.72;2.53;;;12.30;99.90;;;;;;4984240;28;20662;-73
2023/05/16 03:10:34;;;;;;;3.17;2.38;;;12.30;99.90;;;;;;4985328;28;20647;-71
2023/05/16 03:13:02;;;;;;;2.88;2.58;;;12.50;99.90;;;;;;4983017;28;20293;-72
2023/05/16 03:15:30;;;;;;;4.90;2.75;;;12.50;99.90;;;;;;4981601;28;20202;-72
2023/05/16 03:17:58;;;;;;;3.47;2.85;;;12.50;99.90;;;;;;4978331;28;20648;-73
2023/05/16 03:20:26;;;;;;;3.17;2.88;;;12.50;99.90;;;;;;4982078;28;20734;-73
2023/05/16 03:22:54;;;;;;;2.95;2.05;;;12.60;99.90;;;;;;4981441;28;20274;-71
2023/05/16 03:25:23;;;;;;;3.70;3.28;;;12.70;99.90;;;;;;4973500;28;20219;-70
2023/05/16 03:27:51;;;;;;;3.47;2.95;;;12.60;99.90;;;;;;4981287;28;20268;-70
2023/05/16 03:30:19;;;;;;;2.78;2.25;;;12.60;99.90;;;;;;4980773;28;20843;-70
2023/05/16 03:32:47;;;;;;;3.35;3.05;;;12.50;99.90;;;;;;4981345;28;20238;-70
2023/05/16 03:35:15;;;;;;;4.63;2.97;;;12.60;99.90;;;;;;4984645;28;20253;-70
2023/05/16 03:37:43;;;;;;;3.25;2.10;;;12.70;99.90;;;;;;4984539;28;20210;-70
2023/05/16 03:40:12;;;;;;;5.25;2.47;;;12.90;99.90;;;;;;4981125;28;20697;-69
2023/05/16 03:42:41;;;;;;;2.22;2.00;;;12.80;99.90;;;;;;4981064;28;20321;-70
2023/05/16 03:45:09;;;;;;;3.40;2.47;;;12.70;99.90;;;;;;4979609;28;20681;-70
2023/05/16 03:47:37;;;;;;;1.83;1.55;;;12.80;99.90;;;;;;4984457;28;20238;-70
2023/05/16 03:50:07;;;;;;;2.45;1.95;;;12.80;99.90;;;;;;4981609;28;20724;-70
2023/05/16 03:52:35;;;;;;;2.00;1.67;;;12.70;99.90;;;;;;4977626;28;20732;-70
2023/05/16 03:55:04;;;;;;;2.90;2.42;;;12.60;99.90;;;;;;4972721;28;20298;-70
2023/05/16 03:57:33;;;;;;;2.55;1.60;;;12.70;99.90;;;;;;4979085;28;20621;-70
2023/05/16 04:00:06;;;;;;;2.15;1.60;;;12.80;99.90;;;;;;4981311;28;20253;-70
2023/05/16 04:02:34;;;;;;;2.22;1.00;;;12.80;99.90;;;;;;4978793;28;20229;-70
2023/05/16 04:05:03;;;;;;;2.17;2.00;;;12.70;99.90;;;;;;4981881;28;20628;-71
2023/05/16 04:07:30;;;;;;;1.48;1.35;;;12.70;99.90;;;;;;4980692;28;20582;-72
2023/05/16 04:09:58;;;;;;;2.28;1.00;;;12.90;99.90;;;;;;4978715;28;20242;-72
2023/05/16 04:12:26;;;;;;;1.30;1.20;;;12.90;99.90;;;;;;4984179;28;20228;-69
2023/05/16 04:14:54;;;;;;;1.25;1.13;;;12.90;99.90;;;;;;4982860;28;20288;-69
2023/05/16 04:17:23;;;;;;;0.70;0.60;;;12.90;99.90;;;;;;4980345;28;20214;-70
2023/05/16 04:19:51;;;;;;;0.80;0.75;;;13.00;99.90;;;;;;4976289;28;20265;-72
2023/05/16 04:22:21;;;;;;;1.23;1.13;;;12.90;99.90;;;;;;4971510;28;20213;-72
2023/05/16 04:24:49;;;;;;;2.08;0.93;;;12.90;99.90;;;;;;4979278;28;20222;-71
2023/05/16 04:27:17;;;;;;;0.73;0.73;;;12.90;99.90;;;;;;4979922;28;20216;-72
2023/05/16 04:29:45;;;;;;;0.77;0.73;;;12.90;99.90;;;;;;4979635;28;20871;-72
2023/05/16 04:32:14;;;;;;;1.60;1.08;;;12.90;99.90;;;;;;4975130;28;20206;-72
2023/05/16 04:34:45;;;;;;;0.80;0.75;;;12.90;99.90;;;;;;4983106;28;20214;-73
2023/05/16 04:37:13;;;;;;;0.60;0.50;;;12.90;99.90;;;;;;4979193;28;20218;-72
2023/05/16 04:39:42;;;;;;;1.33;0.57;;;12.70;99.90;;;;;;4979736;28;20214;-72
2023/05/16 04:42:10;;;;;;;0.57;0.40;;;12.70;99.90;;;;;;4976809;28;20234;-72
2023/05/16 04:44:38;;;;;;;1.13;0.70;;;12.70;99.90;;;;;;4979675;28;20257;-73
2023/05/16 04:47:06;;;;;;;0.60;0.52;;;12.70;99.90;;;;;;4982319;28;20211;-71
2023/05/16 04:49:34;;;;;;;0.57;0.45;;;12.70;99.90;;;;;;4979227;28;20211;-71
2023/05/16 04:52:04;;;;;;;0.60;0.40;;;12.70;99.90;;;;;;4977735;28;20624;-72
2023/05/16 04:54:32;;;;;;;0.60;0.43;;;12.70;99.90;;;;;;4971839;28;20226;-72
2023/05/16 04:57:00;;;;;;;0.50;0.40;;;12.80;99.90;;;;;;4973347;28;20248;-72
2023/05/16 04:59:28;;;;;;;0.60;0.50;;;12.90;99.90;;;;;;4981597;28;20210;-72
2023/05/16 05:01:55;;;;;;;0.63;0.40;;;12.80;99.90;;;;;;4977958;28;20254;-72
2023/05/16 05:04:25;;;;;;;0.80;0.50;;;12.70;99.90;;;;;;4982864;28;20275;-72
2023/05/16 05:06:53;;;;;;;0.60;0.52;;;12.70;99.90;;;;;;4967228;28;20208;-71
2023/05/16 05:09:22;;;;;;;0.60;0.50;;;12.60;99.90;;;;;;4969723;28;20206;-70
2023/05/16 05:11:50;;;;;;;0.75;0.70;;;12.50;99.90;;;;;;4975561;28;20257;-72
2023/05/16 05:14:18;;;;;;;1.00;0.82;;;12.40;99.90;;;;;;4974215;28;20214;-72
2023/05/16 05:16:45;;;;;;;0.80;0.60;;;12.40;99.90;;;;;;4967764;28;20829;-71
2023/05/16 05:19:13;;;;;;;0.80;0.70;;;12.40;99.90;;;;;;4969257;28;20213;-71
2023/05/16 05:21:41;;;;;;;0.68;0.60;;;12.40;99.90;;;;;;4967089;28;20611;-71
2023/05/16 05:24:10;;;;;;;0.80;0.50;;;12.40;99.90;;;;;;4968398;28;20226;-71
2023/05/16 05:26:39;;;;;;;0.70;0.60;;;12.50;99.90;;;;;;4969766;28;20257;-70
2023/05/16 05:29:08;;;;;;;0.60;0.50;;;12.50;99.90;;;;;;4969934;28;20254;-71
2023/05/16 05:31:36;;;;;;;0.50;0.40;;;12.40;99.90;;;;;;4967993;28;20302;-70
2023/05/16 05:34:04;;;;;;;0.60;0.52;;;12.40;99.90;;;;;;4970830;28;20650;-71
2023/05/16 05:36:31;;;;;;;0.90;0.90;;;12.40;99.90;;;;;;4971572;28;20241;-71
2023/05/16 05:38:59;;;;;;;0.60;0.43;;;12.40;99.90;;;;;;4965391;28;20211;-70
2023/05/16 05:41:27;;;;;;;1.45;0.93;;;12.40;99.90;;;;;;4972001;28;20816;-72
2023/05/16 05:43:56;;;;;;;0.70;0.50;;;12.40;99.90;;;;;;4968588;28;20217;-74
2023/05/16 05:46:25;;;;;;;0.93;0.50;;;12.40;99.90;;;;;;4968063;28;20289;-71
2023/05/16 05:48:53;;;;;;;0.70;0.57;;;12.40;99.90;;;;;;4968272;28;20221;-70
2023/05/16 05:51:21;;;;;;;0.60;0.50;;;12.40;99.90;;;;;;4965275;28;20321;-73
2023/05/16 05:53:48;;;;;;;0.60;0.50;;;12.40;99.90;;;;;;4970843;28;20203;-71
2023/05/16 05:56:17;;;;;;;0.50;0.40;;;12.50;99.90;;;;;;4971792;28;20203;-70
2023/05/16 05:58:45;;;;;;;0.60;0.52;;;12.50;99.90;;;;;;4970663;28;20298;-71
2023/05/16 06:01:14;;;;;;;1.00;0.73;;;12.50;99.90;;;;;;4981004;28;20250;-70
2023/05/16 06:03:42;;;;;;;0.60;0.40;;;12.60;99.90;;;;;;4986000;28;20313;-70
2023/05/16 06:06:10;;;;;;;2.80;0.68;;;12.50;99.90;;;;;;4978150;28;20280;-70
2023/05/16 06:08:38;;;;;;;0.70;0.40;;;12.50;99.90;;;;;;4986060;28;20208;-70
2023/05/16 06:11:06;;;;;;;0.60;0.40;;;12.50;99.90;;;;;;4979656;28;20269;-71
2023/05/16 06:13:34;;;;;;;1.15;0.47;;;12.50;99.90;;;;;;4981251;28;20290;-72
2023/05/16 06:16:02;;;;;;;0.50;0.30;;;12.50;99.90;;;;;;4972977;28;20242;-72
2023/05/16 06:18:31;;;;;;;1.13;0.90;;;12.50;99.90;;;;;;4982366;28;20265;-72
2023/05/16 06:20:59;;;;;;;0.60;0.50;;;12.40;99.90;;;;;;4982269;28;20233;-72
2023/05/16 06:23:27;;;;;;;0.50;0.30;;;12.40;99.90;;;;;;4975447;28;20658;-72
2023/05/16 06:25:55;;;;;;;0.70;0.60;;;12.40;99.90;;;;;;4964903;28;20221;-72
2023/05/16 06:28:23;;;;;;;0.50;0.40;;;12.30;99.90;;;;;;4982560;28;20207;-72
2023/05/16 06:30:51;;;;;;;0.65;0.50;;;12.30;99.90;;;;;;4982497;28;20234;-71
2023/05/16 06:33:19;;;;;;;0.50;0.35;;;12.30;99.90;;;;;;4966398;28;20296;-72
2023/05/16 06:35:48;;;;;;;0.60;0.50;;;12.30;99.90;;;;;;4965012;28;20301;-72
2023/05/16 06:38:18;;;;;;;0.60;0.47;;;12.30;99.90;;;;;;4974856;28;20285;-72
2023/05/16 06:40:46;;;;;;;0.65;0.55;;;12.30;99.90;;;;;;4982113;28;20234;-71
2023/05/16 06:43:14;;;;;;;0.50;0.40;;;12.30;99.90;;;;;;4960368;28;20221;-72
2023/05/16 06:45:41;;;;;;;0.60;0.40;;;12.30;99.90;;;;;;4985619;28;20409;-73
2023/05/16 06:48:11;;;;;;;0.50;0.40;;;12.30;99.90;;;;;;4982297;28;20565;-74
2023/05/16 06:50:39;;;;;;;0.70;0.55;;;12.40;99.90;;;;;;5001138;23;20237;-64
2023/05/16 06:53:08;;;;;;;0.75;0.50;;;12.50;99.90;;;;;;4981120;28;20210;-63
2023/05/16 06:55:36;;;;;;;0.50;0.30;;;12.50;99.90;;;;;;4973544;28;20286;-63
2023/05/16 06:58:04;;;;;;;0.60;0.40;;;12.50;99.90;;;;;;4981623;28;20217;-63
2023/05/16 07:00:32;;;;;;;0.60;0.40;;;12.50;99.90;;;;;;4981907;28;20211;-64
2023/05/16 07:02:59;;;;;;;0.50;0.30;;;12.40;99.90;;;;;;4982987;28;20210;-64
2023/05/16 07:05:28;;;;;;;0.50;0.30;;;12.40;99.90;;;;;;4983216;28;20222;-63
2023/05/16 07:07:57;;;;;;;0.50;0.40;;;12.30;99.90;;;;;;4984021;28;20695;-64
2023/05/16 07:10:27;;;;;;;0.60;0.40;;;12.40;99.90;;;;;;4981669;28;20261;-62
2023/05/16 07:12:55;;;;;;;0.63;0.40;;;12.30;99.90;;;;;;4982296;28;20211;-62
2023/05/16 07:15:23;;;;;;;0.50;0.30;;;12.40;99.90;;;;;;4984804;28;20206;-64
2023/05/16 07:17:51;;;;;;;0.55;0.40;;;12.30;99.90;;;;;;4984161;28;20210;-64
2023/05/16 07:20:19;;;;;;;0.50;0.40;;;12.20;99.90;;;;;;4977380;28;20220;-64
2023/05/16 07:22:47;;;;;;;0.70;0.50;;;12.20;99.90;;;;;;4977505;28;20632;-62
2023/05/16 07:25:15;;;;;;;0.60;0.40;;;12.10;99.90;;;;;;4973148;28;20226;-62
2023/05/16 07:27:44;;;;;;;0.50;0.38;;;12.10;99.90;;;;;;4981419;28;20249;-62
2023/05/16 07:30:13;;;;;;;0.60;0.40;;;12.10;99.90;;;;;;4984275;28;20273;-60
2023/05/16 07:32:42;;;;;;;0.50;0.30;;;12.10;99.90;;;;;;4984643;28;20260;-63
2023/05/16 07:35:10;;;;;;;0.50;0.35;;;12.00;99.90;;;;;;4975843;28;20212;-62
2023/05/16 07:37:40;;;;;;;0.50;0.30;;;11.90;99.90;;;;;;4984007;28;20207;-62
2023/05/16 07:40:09;;;;;;;0.50;0.30;;;11.90;99.90;;;;;;4983527;28;20356;-63
2023/05/16 07:42:37;;;;;;;1.52;0.40;;;12.00;99.90;;;;;;4984172;28;20783;-62
2023/05/16 07:45:07;;;;;;;0.63;0.45;;;12.00;99.90;;;;;;4981205;28;20417;-62
2023/05/16 07:47:35;;;;;;;0.50;0.30;;;12.00;99.90;;;;;;4981019;28;20210;-62
2023/05/16 07:50:04;;;;;;;0.90;0.40;;;12.00;99.90;;;;;;4982695;28;20214;-62
2023/05/16 07:52:32;;;;;;;0.50;0.30;;;11.90;99.90;;;;;;4978717;28;20238;-62
2023/05/16 07:55:03;;;;;;;0.60;0.40;;;11.70;99.90;;;;;;4972335;28;20316;-61
2023/05/16 07:57:31;;;;;;;0.50;0.40;;;11.60;99.90;;;;;;4978421;28;20210;-61
2023/05/16 07:59:59;;;;;;;0.50;0.30;;;11.50;99.90;;;;;;4975637;28;20222;-62
2023/05/16 08:02:29;;;;;;;0.60;0.40;;;11.50;99.90;;;;;;4983621;28;20229;-62
2023/05/16 08:04:58;;;;;;;0.55;0.40;;;11.40;99.90;;;;;;4982504;28;20226;-61
2023/05/16 08:07:26;;;;;;;0.60;0.40;;;11.50;99.90;;;;;;4980734;28;20257;-62
2023/05/16 08:09:54;;;;;;;0.50;0.40;;;11.40;99.90;;;;;;4980989;28;20709;-61
2023/05/16 08:12:23;;;;;;;0.50;0.30;;;11.30;99.90;;;;;;4983696;28;20230;-62
2023/05/16 08:14:51;;;;;;;0.93;0.40;;;11.20;99.90;;;;;;4975214;28;20238;-61
2023/05/16 08:17:19;;;;;;;0.52;0.40;;;11.10;99.90;;;;;;4982222;28;20210;-62
2023/05/16 08:19:48;;;;;;;0.60;0.40;;;11.00;99.90;;;;;;4980263;28;20273;-62
2023/05/16 08:22:16;;;;;;;0.60;0.40;;;11.00;99.90;;;;;;4972530;28;20226;-63
2023/05/16 08:24:44;;;;;;;0.73;0.50;;;11.00;99.90;;;;;;4972218;28;20218;-63
2023/05/16 08:27:12;;;;;;;0.50;0.30;;;11.00;99.90;;;;;;4975375;28;20213;-63
2023/05/16 08:29:40;;;;;;;0.60;0.50;;;11.10;99.90;;;;;;4983213;28;20277;-62
2023/05/16 08:32:09;;;;;;;0.50;0.30;;;11.20;99.90;;;;;;4980380;28;20268;-61
2023/05/16 08:34:37;;;;;;;0.50;0.30;;;11.20;99.90;;;;;;4980095;28;20245;-62
2023/05/16 08:37:07;;;;;;;0.50;0.40;;;11.30;99.90;;;;;;4982214;28;20207;-62
2023/05/16 08:39:35;;;;;;;0.50;0.30;;;11.30;99.90;;;;;;4983490;28;20761;-62
2023/05/16 08:42:04;;;;;;;0.50;0.30;;;11.30;99.90;;;;;;4981001;28;20229;-62
2023/05/16 08:44:32;;;;;;;0.52;0.40;;;11.30;99.90;;;;;;4979423;28;20213;-62
2023/05/16 08:47:07;;;;;;;0.50;0.40;;;11.50;99.90;;;;;;4981260;28;20230;-61
2023/05/16 08:49:36;;;;;;;0.55;0.40;;;11.60;99.90;;;;;;4983348;28;20197;-61
2023/05/16 08:52:08;;;;;;;0.57;0.40;;;11.60;99.90;;;;;;4980279;28;20720;-62
2023/05/16 08:54:37;;;;;;;0.50;0.40;;;11.70;99.90;;;;;;4971918;28;20199;-62
2023/05/16 08:57:06;;;;;;;0.60;0.40;;;11.90;99.90;;;;;;4973838;28;20213;-62
2023/05/16 08:59:35;;;;;;;0.50;0.40;;;12.10;99.90;;;;;;4979555;28;20218;-62
2023/05/16 09:02:04;;;;;;;0.50;0.40;;;12.20;99.90;;;;;;4981179;28;20241;-62
2023/05/16 09:04:33;;;;;;;0.50;0.40;;;12.20;99.90;;;;;;4983163;28;20695;-63
2023/05/16 09:07:01;;;;;;;0.80;0.40;;;12.20;99.90;;;;;;4981220;28;20226;-62
2023/05/16 09:09:30;;;;;;;0.70;0.40;;;12.20;99.90;;;;;;4979880;28;20270;-61
2023/05/16 09:11:58;;;;;;;0.52;0.40;;;12.30;99.90;;;;;;4980693;28;20226;-61
2023/05/16 09:14:26;;;;;;;0.50;0.30;;;12.30;99.90;;;;;;4981525;28;20206;-63
2023/05/16 09:17:04;;;;;;;0.50;0.40;;;12.10;99.90;;;;;;4980092;28;20203;-62
2023/05/16 09:19:39;;;;;;;0.60;0.47;;;12.20;99.90;;;;;;4983164;28;20206;-63
2023/05/16 09:22:09;;;;;;;0.60;0.40;;;12.10;99.90;;;;;;4979869;28;20301;-64
2023/05/16 09:24:40;;;;;;;0.50;0.40;;;12.10;99.90;;;;;;4971650;28;20736;-64
2023/05/16 09:27:09;;;;;;;0.60;0.40;;;12.10;99.90;;;;;;4975219;28;20231;-63
2023/05/16 09:29:37;;;;;;;0.60;0.40;;;11.90;99.90;;;;;;4986914;28;20256;-63
2023/05/16 09:32:10;;;;;;;0.50;0.38;;;11.90;99.90;;;;;;4982999;28;20230;-63
2023/05/16 09:34:39;;;;;;;0.70;0.45;;;12.00;99.90;;;;;;4986820;28;20260;-63
2023/05/16 09:37:09;;;;;;;0.50;0.40;;;12.00;99.90;;;;;;4984129;28;20210;-63
2023/05/16 09:39:45;;;;;;;0.50;0.40;;;11.90;99.90;;;;;;4983631;28;20309;-63
2023/05/16 09:42:13;;;;;;;0.55;0.40;;;11.80;99.90;;;;;;4986174;28;20303;-63
2023/05/16 09:44:45;;;;;;;0.50;0.40;;;11.90;99.90;;;;;;4985364;28;20640;-62
2023/05/16 09:47:14;;;;;;;0.50;0.30;;;12.00;99.90;;;;;;4986127;28;20708;-63
2023/05/16 09:49:43;;;;;;;0.70;0.45;;;12.00;99.90;;;;;;4986487;28;20210;-63
2023/05/16 09:52:11;;;;;;;0.55;0.40;;;11.90;99.90;;;;;;4982457;28;20607;-63
2023/05/16 09:54:41;;;;;;;0.60;0.50;;;11.90;99.90;;;;;;4974945;28;20253;-63
2023/05/16 09:57:09;;;;;;;0.60;0.47;;;12.10;99.90;;;;;;4977565;28;20224;-63
2023/05/16 09:59:38;;;;;;;0.50;0.40;;;12.00;99.90;;;;;;4986412;28;20214;-63
2023/05/16 10:02:07;;;;;;;0.70;0.40;;;11.90;99.90;;;;;;4982738;28;20230;-63
2023/05/16 10:04:35;;;;;;;0.60;0.45;;;12.00;99.90;;;;;;4982929;28;20217;-63
2023/05/16 10:07:05;;;;;;;1.23;0.50;;;12.10;99.90;;;;;;4984332;28;20736;-63
2023/05/16 10:09:34;;;;;;;2.60;0.85;;;12.10;99.90;;;;;;4986217;28;20210;-62
2023/05/16 10:12:07;;;;;;;0.63;0.52;;;12.10;99.90;;;;;;4984174;28;20284;-63
2023/05/16 10:14:37;;;;;;;0.60;0.47;;;12.10;99.90;;;;;;4982664;28;20253;-63
2023/05/16 10:17:07;;;;;;;0.60;0.40;;;12.10;99.90;;;;;;4980220;28;20253;-64
2023/05/16 10:19:38;;;;;;;0.60;0.50;;;12.10;99.90;;;;;;4983768;28;20677;-64
2023/05/16 10:22:07;;;;;;;0.50;0.40;;;12.10;99.90;;;;;;4982837;28;20227;-64
2023/05/16 10:24:43;;;;;;;0.60;0.50;;;12.20;99.90;;;;;;4974446;28;20207;-64
2023/05/16 10:27:15;;;;;;;2.08;0.60;;;12.30;99.90;;;;;;4976878;28;20587;-64
2023/05/16 10:29:46;;;;;;;0.60;0.40;;;12.40;99.90;;;;;;4985735;28;20541;-64
2023/05/16 10:32:23;;;;;;;0.60;0.40;;;12.50;99.90;;;;;;4972108;28;20598;-64
2023/05/16 10:34:51;;;;;;;0.60;0.40;;;12.60;99.90;;;;;;4985318;28;20206;-64
2023/05/16 10:37:19;;;;;;;0.60;0.50;;;12.60;99.90;;;;;;4982366;28;20572;-64
2023/05/16 10:39:48;;;;;;;0.77;0.40;;;12.70;99.90;;;;;;4981313;28;20213;-63
2023/05/16 10:42:19;;;;;;;0.50;0.40;;;12.70;99.90;;;;;;4981863;28;20277;-64
2023/05/16 10:44:47;;;;;;;0.50;0.40;;;12.80;99.90;;;;;;4982220;28;20576;-64
2023/05/16 10:47:32;;;;;;;1.98;0.50;;;12.70;99.90;;;;;;4970205;28;20250;-63
2023/05/16 10:50:00;;;;;;;2.35;0.50;;;12.70;99.90;;;;;;4983603;28;20264;-64
2023/05/16 10:52:34;;;;;;;0.50;0.40;;;12.80;99.90;;;;;;4981636;28;20238;-63
2023/05/16 10:55:04;;;;;;;0.98;0.98;;;12.70;99.90;;;;;;4973735;28;20242;-63
2023/05/16 10:57:35;;;;;;;2.00;0.70;;;12.90;99.90;;;;;;4979532;28;20261;-64
2023/05/16 11:00:09;;;;;;;0.50;0.40;;;13.00;99.90;;;;;;4983292;28;20205;-64
2023/05/16 11:02:41;;;;;;;0.50;0.40;;;13.00;99.90;;;;;;4978449;28;20222;-63
2023/05/16 11:05:17;;;;;;;0.60;0.50;;;13.10;99.90;;;;;;4984608;28;20224;-64
2023/05/16 11:08:04;;;;;;;0.60;0.40;;;13.10;99.90;;;;;;4984895;28;20229;-64
2023/05/16 11:10:32;;;;;;;0.50;0.30;;;13.40;99.90;;;;;;4984972;28;20256;-63
2023/05/16 11:13:08;;;;;;;0.60;0.40;;;13.40;99.90;;;;;;4983055;28;20796;-63
2023/05/16 11:15:36;;;;;;;0.63;0.50;;;13.40;99.90;;;;;;4981545;28;20226;-63
2023/05/16 11:18:06;;;;;;;0.80;0.40;;;13.50;99.90;;;;;;4981976;28;20229;-64
2023/05/16 11:20:35;;;;;;;0.50;0.40;;;13.70;99.90;;;;;;4985044;28;20286;-64
2023/05/16 11:23:26;;;;;;;0.50;0.40;;;13.80;99.90;;;;;;4977083;28;20206;-64
2023/05/16 11:25:56;;;;;;;2.50;0.93;;;13.90;99.90;;;;;;4975645;28;20244;-64
2023/05/16 11:28:26;;;;;;;0.50;0.40;;;13.90;99.90;;;;;;4981042;28;20265;-64
2023/05/16 11:30:57;;;;;;;1.73;0.50;;;14.00;99.90;;;;;;4981800;28;20281;-63
2023/05/16 11:33:26;;;;;;;0.50;0.40;;;14.10;99.90;;;;;;4984595;28;20210;-64
2023/05/16 11:36:02;;;;;;;0.50;0.35;;;14.40;99.90;;;;;;4980857;28;20238;-64
2023/05/16 11:38:42;;;;;;;0.50;0.30;;;14.50;99.90;;;;;;4981285;28;20207;-64
2023/05/16 11:41:11;;;;;;;0.60;0.40;;;14.70;99.90;;;;;;4983467;28;20233;-64
2023/05/16 11:43:44;;;;;;;0.50;0.30;;;14.90;99.90;;;;;;4971220;28;20211;-64
2023/05/16 11:46:13;;;;;;;0.50;0.30;;;15.30;99.90;;;;;;4972671;28;20290;-63
2023/05/16 11:48:41;;;;;;;0.50;0.30;;;15.40;99.90;;;;;;4972710;28;20273;-63
2023/05/16 11:51:09;;;;;;;0.50;0.30;;;15.50;99.90;;;;;;4979118;28;20239;-63
2023/05/16 11:53:38;;;;;;;0.50;0.30;;;15.60;99.90;;;;;;4972739;28;20214;-64
2023/05/16 11:56:08;;;;;;;0.50;0.30;;;16.00;99.90;;;;;;4972518;28;20214;-65
2023/05/16 11:58:37;;;;;;;0.52;0.40;;;16.40;99.90;;;;;;4972606;28;20210;-63
2023/05/16 12:01:06;;;;;;;0.77;0.63;;;16.40;99.90;;;;;;4972289;28;20317;-64
2023/05/16 12:03:35;;;;;;;0.60;0.50;;;16.50;99.90;;;;;;4972559;28;20199;-64
2023/05/16 12:06:04;;;;;;;0.50;0.40;;;16.70;99.90;;;;;;4972504;28;20670;-63
2023/05/16 12:08:33;;;;;;;0.50;0.40;;;16.90;99.90;;;;;;4972252;28;20233;-63
2023/05/16 12:11:01;;;;;;;0.50;0.40;;;16.70;99.50;;;;;;4972087;28;20230;-63
2023/05/16 12:13:30;;;;;;;0.50;0.30;;;16.70;99.90;;;;;;4979973;28;20210;-63
2023/05/16 12:15:58;;;;;;;0.50;0.30;;;16.90;98.80;;;;;;4973390;28;20209;-64
2023/05/16 12:18:27;;;;;;;0.60;0.43;;;17.00;98.10;;;;;;4983855;28;20205;-64
2023/05/16 12:20:55;;;;;;;0.50;0.38;;;17.10;97.90;;;;;;4982662;28;20236;-62
2023/05/16 12:23:26;;;;;;;0.50;0.30;;;17.20;97.50;;;;;;4980562;28;20206;-63
2023/05/16 12:25:56;;;;;;;0.82;0.75;;;17.50;96.90;;;;;;4980844;28;20217;-63
2023/05/16 12:28:24;;;;;;;0.50;0.30;;;17.90;98.40;;;;;;4984160;28;20226;-63
2023/05/16 12:30:52;;;;;;;0.90;0.45;;;18.40;95.20;;;;;;4980273;28;20230;-64
2023/05/16 12:33:20;;;;;;;0.50;0.30;;;18.70;95.10;;;;;;4983474;28;20206;-63
2023/05/16 12:35:51;;;;;;;0.60;0.40;;;19.10;94.20;;;;;;4983574;28;20225;-63
2023/05/16 12:38:20;;;;;;;0.70;0.40;;;19.40;93.10;;;;;;4983819;28;20234;-63
2023/05/16 12:40:48;;;;;;;0.60;0.40;;;19.40;94.00;;;;;;4983397;28;20716;-64
2023/05/16 12:43:18;;;;;;;0.57;0.40;;;19.00;94.10;;;;;;4979282;28;20198;-64
2023/05/16 12:45:50;;;;;;;0.60;0.40;;;18.60;93.90;;;;;;4980214;28;20214;-63
2023/05/16 12:48:18;;;;;;;0.60;0.40;;;18.60;93.50;;;;;;4966653;28;20214;-63
2023/05/16 12:53:41;;;;;;;0.60;0.40;;;19.70;90.30;;;;;;4950066;29;20250;-70
2023/05/16 12:56:10;;;;;;;0.60;0.45;;;20.00;90.50;;;;;;4952779;29;20256;-71
2023/05/16 12:58:38;;;;;;;0.55;0.40;;;20.30;91.40;;;;;;4952775;29;20262;-72
2023/05/16 13:01:07;;;;;;;0.50;0.30;;;20.00;89.40;;;;;;4952267;28;20207;-72